Time;durP1;ratioP1;P1;durP2;ratioP2;P2;SDS_P1;SDS_P2;PMS_P1;PMS_P2;Temp;Humidity;BMP_temperature;BMP_pressure;BME280_temperature;BME280_humidity;BME280_pressure;Samples;Min_cycle;Max_cycle;Signal;HPM_P1;HPM_P2
2023/08/13 00:00:07;;;;;;;10.90;5.30;;;;;;;17.09;100.00;100967.66;105948;1263;61209;-55
2023/08/13 00:02:34;;;;;;;8.70;5.10;;;;;;;17.11;100.00;100970.42;106068;1263;69928;-58
2023/08/13 00:05:00;;;;;;;10.40;5.80;;;;;;;17.13;100.00;100969.14;105803;1264;71473;-57
2023/08/13 00:07:27;;;;;;;11.20;6.10;;;;;;;17.15;100.00;100970.65;105775;1263;61352;-57
2023/08/13 00:09:53;;;;;;;10.70;5.80;;;;;;;17.15;100.00;100971.68;105871;1262;61373;-56
2023/08/13 00:12:20;;;;;;;10.30;6.90;;;;;;;17.16;100.00;100967.14;106739;1262;61368;-57
2023/08/13 00:14:46;;;;;;;10.30;6.50;;;;;;;17.17;100.00;100964.91;106009;1264;61201;-57
2023/08/13 00:17:13;;;;;;;12.50;6.70;;;;;;;17.18;100.00;100962.73;105781;1267;61298;-60
2023/08/13 00:19:39;;;;;;;11.70;6.50;;;;;;;17.21;100.00;100962.01;105882;1264;61599;-61
2023/08/13 00:22:06;;;;;;;11.70;7.30;;;;;;;17.24;100.00;100962.61;105892;1263;61317;-57
2023/08/13 00:24:33;;;;;;;11.10;7.30;;;;;;;17.27;100.00;100957.70;106438;1264;73588;-59
2023/08/13 00:27:00;;;;;;;15.20;7.60;;;;;;;17.30;100.00;100958.15;106097;1264;60689;-57
2023/08/13 00:29:26;;;;;;;13.80;7.50;;;;;;;17.34;100.00;100956.80;106708;1262;61292;-58
2023/08/13 00:31:55;;;;;;;14.00;7.80;;;;;;;17.38;100.00;100961.48;107626;1262;61286;-53
2023/08/13 00:34:21;;;;;;;11.00;7.30;;;;;;;17.42;100.00;100958.60;106423;1264;61173;-60
2023/08/13 00:36:48;;;;;;;15.60;7.50;;;;;;;17.47;100.00;100959.05;106648;1264;61213;-57
2023/08/13 00:39:14;;;;;;;14.20;7.40;;;;;;;17.50;100.00;100965.43;106275;1267;61063;-62
2023/08/13 00:41:41;;;;;;;11.60;7.00;;;;;;;17.53;100.00;100966.61;105720;1264;61263;-58
2023/08/13 00:44:08;;;;;;;11.40;6.90;;;;;;;17.57;100.00;100969.20;105796;1264;61395;-57
2023/08/13 00:46:36;;;;;;;12.00;6.90;;;;;;;17.58;100.00;100974.19;105739;1267;61276;-61
2023/08/13 00:49:02;;;;;;;12.30;7.10;;;;;;;17.61;100.00;100978.42;106196;1262;75041;-58
2023/08/13 00:51:29;;;;;;;14.60;7.00;;;;;;;17.64;100.00;100976.21;106785;1264;71265;-58
2023/08/13 00:53:55;;;;;;;14.70;6.40;;;;;;;17.66;100.00;100977.55;105810;1264;71705;-57
2023/08/13 00:56:23;;;;;;;11.50;6.20;;;;;;;17.68;100.00;100978.13;105848;1264;61465;-58
2023/08/13 00:58:50;;;;;;;12.30;5.90;;;;;;;17.70;100.00;100980.84;106038;1267;61209;-58
2023/08/13 01:01:16;;;;;;;9.50;6.10;;;;;;;17.73;100.00;100979.37;106046;1262;74708;-59
2023/08/13 01:03:43;;;;;;;9.30;5.60;;;;;;;17.77;100.00;100984.27;106125;1263;61801;-57
2023/08/13 01:06:24;;;;;;;9.80;5.90;;;;;;;17.78;100.00;100984.27;105854;1264;61359;-61
2023/08/13 01:09:03;;;;;;;8.50;5.50;;;;;;;17.81;100.00;100981.85;106640;1263;62018;-58
2023/08/13 01:11:58;;;;;;;10.20;5.80;;;;;;;17.84;100.00;100986.20;106413;1263;60355;-57
2023/08/13 01:14:43;;;;;;;8.70;5.40;;;;;;;17.85;100.00;100985.93;105978;1262;75421;-60
2023/08/13 01:17:11;;;;;;;9.40;5.80;;;;;;;17.88;100.00;100986.42;105835;1266;69973;-57
2023/08/13 01:19:38;;;;;;;7.50;5.20;;;;;;;17.89;100.00;100980.38;105991;1263;72928;-59
2023/08/13 01:22:05;;;;;;;10.60;5.00;;;;;;;17.89;100.00;100987.48;106001;1264;61354;-58
2023/08/13 01:24:31;;;;;;;6.40;4.80;;;;;;;17.88;100.00;100985.27;105887;1262;61411;-57
2023/08/13 01:27:06;;;;;;;6.60;4.60;;;;;;;17.87;100.00;100986.84;106406;1266;60438;-56
2023/08/13 01:29:41;;;;;;;7.10;4.30;;;;;;;17.84;100.00;100992.63;106435;1266;69621;-60
2023/08/13 01:32:13;;;;;;;6.40;4.50;;;;;;;17.80;100.00;100990.41;105816;1262;71378;-56
2023/08/13 01:34:41;;;;;;;9.10;4.30;;;;;;;17.77;100.00;100991.17;105697;1264;61439;-58
2023/08/13 01:37:08;;;;;;;8.70;4.10;;;;;;;17.73;100.00;100992.38;105809;1267;61144;-60
2023/08/13 01:39:35;;;;;;;6.90;4.40;;;;;;;17.69;100.00;100991.34;105840;1267;74705;-57
2023/08/13 01:42:01;;;;;;;8.00;4.40;;;;;;;17.67;100.00;100993.70;105844;1263;71046;-57
2023/08/13 01:44:28;;;;;;;7.40;4.10;;;;;;;17.63;100.00;100989.88;105868;1262;72727;-62
2023/08/13 01:46:54;;;;;;;6.10;4.20;;;;;;;17.61;100.00;100986.27;106900;1261;61188;-59
2023/08/13 01:49:21;;;;;;;8.10;4.20;;;;;;;17.57;100.00;100990.77;105929;1261;61665;-58
2023/08/13 01:51:48;;;;;;;8.00;3.90;;;;;;;17.53;100.00;100993.39;106164;1262;61352;-54
2023/08/13 01:54:14;;;;;;;6.80;4.10;;;;;;;17.49;100.00;100987.40;105691;1264;71334;-61
2023/08/13 01:56:40;;;;;;;7.10;4.30;;;;;;;17.46;100.00;100987.77;105951;1264;61379;-56
2023/08/13 01:59:07;;;;;;;9.20;4.40;;;;;;;17.44;100.00;100985.11;105738;1262;61355;-58
2023/08/13 02:01:34;;;;;;;7.80;4.20;;;;;;;17.41;100.00;100990.10;105912;1262;61654;-60
2023/08/13 02:04:00;;;;;;;7.50;4.00;;;;;;;17.38;100.00;100988.55;106613;1260;61227;-56
2023/08/13 02:06:30;;;;;;;7.50;3.70;;;;;;;17.35;100.00;100987.20;106551;1261;71277;-62
2023/08/13 02:08:56;;;;;;;6.70;4.00;;;;;;;17.31;100.00;100981.65;105800;1263;72710;-58
2023/08/13 02:11:22;;;;;;;8.00;4.20;;;;;;;17.26;100.00;100985.13;105727;1264;61918;-57
2023/08/13 02:13:49;;;;;;;7.20;4.00;;;;;;;17.23;100.00;100988.15;105944;1267;61388;-58
2023/08/13 02:16:15;;;;;;;10.10;4.20;;;;;;;17.19;100.00;100986.42;105869;1262;61236;-61
2023/08/13 02:18:42;;;;;;;5.90;4.00;;;;;;;17.15;100.00;100992.14;105938;1263;61368;-52
2023/08/13 02:21:08;;;;;;;5.90;4.00;;;;;;;17.10;100.00;100993.55;106569;1262;61129;-59
2023/08/13 02:23:35;;;;;;;7.60;3.90;;;;;;;17.06;100.00;100991.25;106326;1263;61664;-57
2023/08/13 02:26:01;;;;;;;9.50;4.10;;;;;;;17.02;100.00;100989.91;105841;1264;61341;-58
2023/08/13 02:28:28;;;;;;;9.90;4.50;;;;;;;16.99;100.00;100989.80;105858;1262;61376;-61
2023/08/13 02:30:54;;;;;;;6.90;4.10;;;;;;;16.96;100.00;100986.84;105774;1264;61295;-61
2023/08/13 02:33:21;;;;;;;8.40;4.30;;;;;;;16.92;100.00;100987.65;105789;1264;61611;-59
2023/08/13 02:35:47;;;;;;;7.70;4.30;;;;;;;16.89;100.00;100986.68;105925;1265;61366;-59
2023/08/13 02:38:14;;;;;;;7.90;4.60;;;;;;;16.88;100.00;100988.01;106679;1262;61253;-58
2023/08/13 02:40:40;;;;;;;9.80;4.80;;;;;;;16.89;100.00;100990.60;105909;1262;62772;-57
2023/08/13 02:43:07;;;;;;;9.00;5.10;;;;;;;16.88;100.00;100995.80;106326;1266;61298;-59
2023/08/13 02:45:33;;;;;;;10.80;4.90;;;;;;;16.87;100.00;101001.03;105603;1262;61861;-61
2023/08/13 02:48:00;;;;;;;11.80;5.20;;;;;;;16.86;100.00;101006.39;105916;1266;61290;-61
2023/08/13 02:50:27;;;;;;;10.30;5.30;;;;;;;16.87;100.00;101003.55;105997;1262;61369;-57
2023/08/13 02:52:53;;;;;;;9.50;5.00;;;;;;;16.88;100.00;101000.99;105898;1263;61261;-60
2023/08/13 02:55:20;;;;;;;6.80;5.40;;;;;;;16.86;100.00;101000.30;106108;1262;61392;-58
2023/08/13 02:57:46;;;;;;;9.30;5.70;;;;;;;16.84;100.00;101005.19;106258;1264;61342;-60
2023/08/13 03:00:32;;;;;;;9.50;5.70;;;;;;;16.83;100.00;101002.73;106450;1264;64230;-62
2023/08/13 03:02:59;;;;;;;9.60;6.10;;;;;;;16.83;100.00;100999.88;105822;1262;61796;-58
2023/08/13 03:05:26;;;;;;;10.80;6.30;;;;;;;16.82;100.00;100995.47;105691;1264;74693;-61
2023/08/13 03:07:52;;;;;;;9.20;6.00;;;;;;;16.83;100.00;100992.88;106013;1262;61452;-54
2023/08/13 03:10:19;;;;;;;9.50;6.20;;;;;;;16.84;100.00;100996.66;105867;1264;71988;-58
2023/08/13 03:12:45;;;;;;;11.90;6.80;;;;;;;16.85;100.00;100994.77;105870;1262;61359;-59
2023/08/13 03:15:12;;;;;;;9.50;6.90;;;;;;;16.87;100.00;100990.77;106728;1264;61782;-60
2023/08/13 03:17:38;;;;;;;13.20;6.60;;;;;;;16.90;100.00;100989.27;106377;1263;61797;-60
2023/08/13 03:20:05;;;;;;;9.00;6.50;;;;;;;16.93;100.00;100991.36;105984;1266;61255;-58
2023/08/13 03:22:32;;;;;;;10.90;6.90;;;;;;;16.95;100.00;100994.25;105726;1262;71799;-62
2023/08/13 03:24:58;;;;;;;9.50;6.30;;;;;;;16.97;100.00;100998.25;105792;1262;61432;-58
2023/08/13 03:27:25;;;;;;;8.50;6.40;;;;;;;16.98;100.00;100999.36;105790;1262;61283;-59
2023/08/13 03:29:51;;;;;;;9.20;6.40;;;;;;;17.00;100.00;100997.34;106526;1262;62048;-61
2023/08/13 03:32:17;;;;;;;9.50;6.20;;;;;;;17.02;100.00;100997.41;106370;1263;61292;-57
2023/08/13 03:34:44;;;;;;;8.00;6.00;;;;;;;17.03;100.00;100997.95;106002;1262;61364;-59
2023/08/13 03:37:10;;;;;;;9.10;5.90;;;;;;;17.05;100.00;100999.14;106279;1267;61690;-61
2023/08/13 03:39:37;;;;;;;8.80;5.80;;;;;;;17.07;100.00;100994.50;105892;1264;61372;-61
2023/08/13 03:42:03;;;;;;;10.10;6.20;;;;;;;17.10;100.00;100993.48;105920;1262;61468;-57
2023/08/13 03:44:30;;;;;;;10.10;5.70;;;;;;;17.12;100.00;100997.47;105749;1262;61596;-58
2023/08/13 03:46:56;;;;;;;8.70;5.60;;;;;;;17.14;100.00;100998.33;106087;1262;61259;-60
2023/08/13 03:49:23;;;;;;;8.80;5.20;;;;;;;17.12;100.00;100998.20;106533;1266;61375;-57
2023/08/13 03:51:49;;;;;;;7.00;4.40;;;;;;;17.11;100.00;100998.58;106178;1266;61334;-61
2023/08/13 03:54:16;;;;;;;8.20;5.10;;;;;;;17.12;100.00;100999.45;106335;1262;61302;-63
2023/08/13 03:56:42;;;;;;;8.20;5.40;;;;;;;17.12;100.00;101002.41;105463;1264;61271;-53
2023/08/13 03:59:09;;;;;;;9.30;4.80;;;;;;;17.13;100.00;101002.04;105781;1264;62099;-58
2023/08/13 04:01:35;;;;;;;9.00;5.70;;;;;;;17.12;100.00;101005.80;105619;1263;61656;-59
2023/08/13 04:04:02;;;;;;;7.80;5.00;;;;;;;17.15;100.00;101004.67;106194;1260;61326;-61
2023/08/13 04:06:29;;;;;;;9.90;5.70;;;;;;;17.17;100.00;101007.36;105916;1262;61256;-58
2023/08/13 04:08:55;;;;;;;7.60;4.70;;;;;;;17.19;100.00;101003.89;106872;1262;61415;-61
2023/08/13 04:11:21;;;;;;;7.30;5.30;;;;;;;17.21;100.00;101009.36;105979;1262;61467;-62
2023/08/13 04:13:48;;;;;;;7.50;4.60;;;;;;;17.21;100.00;101007.63;105804;1267;61368;-59
2023/08/13 04:16:14;;;;;;;7.60;4.90;;;;;;;17.22;100.00;101008.79;106044;1262;61260;-62
2023/08/13 04:18:41;;;;;;;8.00;4.70;;;;;;;17.22;100.00;101009.11;105807;1262;61241;-56
2023/08/13 04:21:08;;;;;;;5.30;4.60;;;;;;;17.22;100.00;101014.30;105898;1262;61021;-58
2023/08/13 04:23:34;;;;;;;8.10;4.90;;;;;;;17.22;100.00;101012.54;105941;1262;61882;-59
2023/08/13 04:26:01;;;;;;;8.50;4.90;;;;;;;17.22;100.00;101015.98;106971;1262;61474;-59
2023/08/13 04:28:27;;;;;;;6.50;4.80;;;;;;;17.23;100.00;101015.79;106703;1262;61299;-56
2023/08/13 04:30:54;;;;;;;10.80;4.90;;;;;;;17.24;100.00;101014.77;105925;1262;61891;-57
2023/08/13 04:33:21;;;;;;;9.50;4.60;;;;;;;17.24;100.00;101013.09;106016;1262;61402;-63
2023/08/13 04:35:53;;;;;;;8.90;4.60;;;;;;;17.24;100.00;101011.54;105788;1262;71373;-60
2023/08/13 04:38:20;;;;;;;6.40;4.50;;;;;;;17.25;100.00;101015.82;105979;1262;62853;-59
2023/08/13 04:40:48;;;;;;;6.40;4.10;;;;;;;17.25;100.00;101013.88;105738;1263;60354;-59
2023/08/13 04:43:15;;;;;;;6.70;4.20;;;;;;;17.25;100.00;101012.06;106206;1262;74236;-58
2023/08/13 04:45:48;;;;;;;6.80;4.20;;;;;;;17.26;100.00;101016.08;106946;1262;71252;-59
2023/08/13 04:48:38;;;;;;;7.30;4.30;;;;;;;17.27;100.00;101012.23;106366;1262;71141;-62
2023/08/13 04:51:04;;;;;;;8.10;4.50;;;;;;;17.27;100.00;101010.73;106063;1262;271928;-57
2023/08/13 04:53:31;;;;;;;7.80;4.80;;;;;;;17.27;100.00;101015.44;106037;1262;61642;-62
2023/08/13 04:55:57;;;;;;;5.40;4.00;;;;;;;17.27;100.00;101014.86;106079;1262;61274;-61
2023/08/13 04:58:24;;;;;;;7.10;4.70;;;;;;;17.27;100.00;101015.81;105862;1263;61372;-59
2023/08/13 05:00:50;;;;;;;7.00;4.50;;;;;;;17.26;100.00;101017.55;105780;1262;61328;-62
2023/08/13 05:03:17;;;;;;;7.40;4.40;;;;;;;17.26;100.00;101015.91;106539;1264;61224;-60
2023/08/13 05:05:43;;;;;;;8.30;4.70;;;;;;;17.26;100.00;101015.66;106710;1262;61300;-58
2023/08/13 05:08:10;;;;;;;8.40;4.10;;;;;;;17.25;100.00;101015.48;105922;1262;61360;-57
2023/08/13 05:10:36;;;;;;;9.60;4.70;;;;;;;17.27;100.00;101017.22;105823;1264;61801;-57
2023/08/13 05:13:03;;;;;;;7.70;4.30;;;;;;;17.29;100.00;101017.34;106030;1262;61397;-59
2023/08/13 05:15:31;;;;;;;6.00;4.40;;;;;;;17.29;100.00;101014.94;105682;1266;62157;-59
2023/08/13 05:17:58;;;;;;;9.40;4.40;;;;;;;17.30;100.00;101018.00;106280;1262;61235;-57
2023/08/13 05:20:25;;;;;;;8.20;4.40;;;;;;;17.33;100.00;101020.83;106437;1262;74419;-57
2023/08/13 05:22:51;;;;;;;5.90;4.30;;;;;;;17.35;100.00;101020.95;106494;1262;71475;-59
2023/08/13 05:25:18;;;;;;;8.00;4.40;;;;;;;17.38;100.00;101023.20;105678;1262;61306;-58
2023/08/13 05:27:44;;;;;;;7.70;4.20;;;;;;;17.44;100.00;101026.44;105759;1262;62828;-58
2023/08/13 05:30:11;;;;;;;7.40;4.20;;;;;;;17.50;100.00;101025.68;105837;1262;61346;-57
2023/08/13 05:32:38;;;;;;;6.10;4.10;;;;;;;17.56;100.00;101025.90;105656;1264;73980;-55
2023/08/13 05:35:05;;;;;;;7.20;3.90;;;;;;;17.62;100.00;101027.45;105877;1265;61230;-61
2023/08/13 05:37:31;;;;;;;7.00;4.00;;;;;;;17.68;100.00;101026.75;105793;1266;71467;-57
2023/08/13 05:39:58;;;;;;;9.80;4.30;;;;;;;17.75;100.00;101027.13;106867;1262;61126;-57
2023/08/13 05:42:24;;;;;;;5.40;3.80;;;;;;;17.84;100.00;101025.66;105599;1262;61288;-58
2023/08/13 05:44:51;;;;;;;6.30;3.90;;;;;;;17.93;100.00;101024.59;105809;1262;61376;-58
2023/08/13 05:47:17;;;;;;;6.00;3.80;;;;;;;18.05;100.00;101030.17;105615;1266;61106;-61
2023/08/13 05:49:44;;;;;;;6.00;3.80;;;;;;;18.16;100.00;101033.82;105691;1262;61399;-59
2023/08/13 05:52:10;;;;;;;5.00;3.60;;;;;;;18.27;100.00;101033.08;105903;1266;61232;-61
2023/08/13 05:54:37;;;;;;;6.20;3.90;;;;;;;18.37;100.00;101032.09;105650;1262;61260;-55
2023/08/13 05:57:04;;;;;;;5.00;3.50;;;;;;;18.46;100.00;101032.77;107043;1262;61687;-59
2023/08/13 05:59:30;;;;;;;5.50;3.50;;;;;;;18.56;100.00;101028.20;105776;1263;62206;-57
2023/08/13 06:01:57;;;;;;;6.60;3.40;;;;;;;18.65;100.00;101027.52;105942;1262;61165;-56
2023/08/13 06:04:23;;;;;;;6.30;3.50;;;;;;;18.76;100.00;101028.35;105835;1262;61193;-59
2023/08/13 06:06:50;;;;;;;6.00;3.40;;;;;;;18.86;100.00;101023.40;105695;1263;61128;-59
2023/08/13 06:09:16;;;;;;;6.50;3.50;;;;;;;18.98;100.00;101023.08;105671;1262;61368;-56
2023/08/13 06:11:42;;;;;;;5.30;3.30;;;;;;;19.06;100.00;101022.73;106043;1262;61259;-60
2023/08/13 06:14:09;;;;;;;6.60;3.10;;;;;;;19.13;100.00;101027.84;107078;1262;61398;-58
2023/08/13 06:16:35;;;;;;;9.00;4.20;;;;;;;19.22;100.00;101032.45;105839;1262;61270;-57
2023/08/13 06:19:02;;;;;;;6.00;3.30;;;;;;;19.29;100.00;101033.45;105678;1267;62658;-56
2023/08/13 06:21:29;;;;;;;6.40;3.00;;;;;;;19.33;100.00;101034.48;106145;1264;61302;-60
2023/08/13 06:23:55;;;;;;;7.20;3.40;;;;;;;19.38;100.00;101036.42;106294;1262;61305;-60
2023/08/13 06:26:21;;;;;;;4.80;3.10;;;;;;;19.45;99.98;101040.55;105833;1264;61770;-57
2023/08/13 06:28:48;;;;;;;5.80;3.20;;;;;;;19.56;100.00;101042.20;105912;1262;61311;-58
2023/08/13 06:31:15;;;;;;;5.70;3.10;;;;;;;19.64;100.00;101043.72;106232;1262;61848;-56
2023/08/13 06:34:01;;;;;;;6.20;3.10;;;;;;;19.73;99.25;101048.02;106542;1260;76905;-57
2023/08/13 06:36:28;;;;;;;5.70;3.20;;;;;;;19.77;98.13;101053.92;105796;1266;61305;-57
2023/08/13 06:38:55;;;;;;;5.70;3.20;;;;;;;19.83;97.92;101054.43;105812;1262;72441;-56
2023/08/13 06:41:21;;;;;;;5.40;2.70;;;;;;;19.87;96.78;101056.61;105881;1262;61365;-57
2023/08/13 06:43:48;;;;;;;5.60;3.00;;;;;;;19.86;95.34;101058.39;106011;1266;61231;-60
2023/08/13 06:46:14;;;;;;;7.90;2.90;;;;;;;19.88;95.57;101058.34;105949;1262;61288;-57
2023/08/13 06:48:41;;;;;;;5.00;2.80;;;;;;;19.95;95.71;101059.27;105999;1263;61804;-59
2023/08/13 06:51:11;;;;;;;6.30;2.80;;;;;;;20.04;95.38;101065.96;106493;1262;61344;-58
2023/08/13 06:53:38;;;;;;;6.10;2.60;;;;;;;20.12;94.95;101063.18;105886;1262;62301;-61
2023/08/13 06:56:06;;;;;;;6.10;2.90;;;;;;;20.18;92.93;101066.24;106175;1262;61247;-59
2023/08/13 06:58:32;;;;;;;5.00;2.20;;;;;;;20.26;92.93;101062.02;105909;1262;73586;-60
2023/08/13 07:00:59;;;;;;;6.00;2.80;;;;;;;20.38;91.99;101059.20;106079;1266;61302;-57
2023/08/13 07:03:26;;;;;;;6.20;2.70;;;;;;;20.55;92.16;101064.02;106001;1266;71544;-58
2023/08/13 07:05:52;;;;;;;5.90;2.60;;;;;;;20.72;90.86;101068.05;106074;1262;61232;-59
2023/08/13 07:08:19;;;;;;;6.00;2.40;;;;;;;20.83;89.26;101068.73;106613;1262;61780;-58
2023/08/13 07:10:45;;;;;;;5.60;2.20;;;;;;;20.88;88.14;101062.87;105773;1262;61319;-62
2023/08/13 07:13:12;;;;;;;6.50;2.50;;;;;;;21.03;89.23;101059.91;105987;1262;61366;-59
2023/08/13 07:15:38;;;;;;;6.40;2.50;;;;;;;21.17;88.36;101064.64;105954;1262;61252;-61
2023/08/13 07:18:05;;;;;;;6.30;2.50;;;;;;;21.27;87.27;101067.48;105960;1262;61830;-59
2023/08/13 07:20:31;;;;;;;8.10;2.50;;;;;;;21.32;85.64;101067.44;106096;1262;61286;-56
2023/08/13 07:22:58;;;;;;;6.20;2.10;;;;;;;21.38;85.03;101068.50;105844;1264;61282;-61
2023/08/13 07:25:25;;;;;;;6.60;2.30;;;;;;;21.36;82.49;101068.71;106305;1262;69965;-60
2023/08/13 07:27:52;;;;;;;6.20;2.10;;;;;;;21.35;82.84;101066.98;105765;1269;71295;-59
2023/08/13 07:30:18;;;;;;;4.80;2.20;;;;;;;21.39;82.78;101065.92;105980;1262;62465;-57
2023/08/13 07:32:45;;;;;;;4.70;2.00;;;;;;;21.39;82.74;101067.38;105819;1266;61388;-57
2023/08/13 07:35:12;;;;;;;6.70;2.40;;;;;;;21.42;83.18;101068.79;105956;1262;72652;-56
2023/08/13 07:37:39;;;;;;;7.90;2.90;;;;;;;21.49;83.53;101069.89;106002;1266;71298;-56
2023/08/13 07:40:07;;;;;;;7.40;2.10;;;;;;;21.61;82.45;101064.93;106159;1262;73910;-56
2023/08/13 07:42:34;;;;;;;7.30;1.80;;;;;;;21.67;80.05;101066.26;106169;1262;62095;-55
2023/08/13 07:45:05;;;;;;;6.70;2.00;;;;;;;21.72;77.52;101072.34;106600;1262;61219;-54
2023/08/13 07:47:33;;;;;;;6.20;1.80;;;;;;;21.74;76.18;101068.65;106370;1262;74721;-57
2023/08/13 07:50:01;;;;;;;6.50;2.10;;;;;;;21.76;75.60;101071.51;106013;1262;69971;-51
2023/08/13 07:52:28;;;;;;;6.50;1.80;;;;;;;21.74;74.62;101073.03;105878;1262;71440;-54
2023/08/13 07:54:54;;;;;;;5.20;1.70;;;;;;;21.70;73.60;101071.01;106118;1262;61191;-51
2023/08/13 07:57:21;;;;;;;4.80;1.40;;;;;;;21.68;73.15;101069.73;106127;1262;61763;-52
2023/08/13 07:59:47;;;;;;;5.60;1.80;;;;;;;21.66;74.04;101081.07;108563;1262;59586;-56
2023/08/13 08:02:14;;;;;;;4.30;1.60;;;;;;;21.64;74.49;101076.13;108542;1262;58997;-51
2023/08/13 08:04:42;;;;;;;7.10;1.90;;;;;;;21.66;74.57;101067.86;108547;1262;71699;-51
2023/08/13 08:07:08;;;;;;;6.20;2.00;;;;;;;21.70;75.24;101068.15;108562;1262;61429;-52
2023/08/13 08:09:35;;;;;;;5.90;2.20;;;;;;;21.80;75.43;101063.97;108555;1261;59195;-51
2023/08/13 08:12:01;;;;;;;5.40;1.80;;;;;;;21.91;74.59;101068.38;108549;1262;59221;-52
2023/08/13 08:14:28;;;;;;;4.80;1.70;;;;;;;22.01;74.30;101065.12;108212;1262;69995;-54
2023/08/13 08:16:59;;;;;;;4.40;1.50;;;;;;;22.06;73.16;101066.28;106036;1262;72749;-52
2023/08/13 08:19:26;;;;;;;6.10;1.70;;;;;;;22.14;72.97;101065.40;106211;1263;61113;-52
2023/08/13 08:21:56;;;;;;;5.20;1.50;;;;;;;22.19;71.99;101071.92;106280;1262;61161;-55
2023/08/13 08:24:23;;;;;;;5.30;1.50;;;;;;;22.24;71.23;101069.33;106034;1262;74557;-53
2023/08/13 08:26:49;;;;;;;7.50;1.60;;;;;;;22.28;70.57;101068.17;106259;1262;61214;-54
2023/08/13 08:29:16;;;;;;;5.90;1.60;;;;;;;22.41;71.29;101062.34;107535;1262;71955;-53
2023/08/13 08:31:43;;;;;;;3.70;1.20;;;;;;;22.56;71.24;101064.46;105906;1262;63115;-56
2023/08/13 08:34:09;;;;;;;4.30;1.40;;;;;;;22.67;69.33;101068.80;105988;1262;61271;-54
2023/08/13 08:36:36;;;;;;;3.90;1.30;;;;;;;22.76;67.81;101068.85;106389;1262;61360;-52
2023/08/13 08:39:03;;;;;;;4.90;1.30;;;;;;;22.89;68.03;101066.15;105639;1266;61311;-49
2023/08/13 08:41:35;;;;;;;4.00;1.40;;;;;;;22.99;67.47;101065.94;106333;1262;72746;-55
2023/08/13 08:44:01;;;;;;;4.30;1.40;;;;;;;23.07;66.72;101068.35;106146;1260;61778;-53
2023/08/13 08:46:29;;;;;;;5.10;1.20;;;;;;;23.06;65.24;101071.52;105939;1262;61653;-51
2023/08/13 08:48:57;;;;;;;4.60;1.40;;;;;;;23.09;64.94;101065.89;106329;1263;73155;-51
2023/08/13 08:51:24;;;;;;;5.40;1.60;;;;;;;23.22;65.16;101068.23;106152;1262;70084;-53
2023/08/13 08:53:51;;;;;;;3.30;1.10;;;;;;;23.34;65.05;101069.08;106374;1262;71514;-57
2023/08/13 08:56:17;;;;;;;4.20;1.40;;;;;;;23.43;64.50;101068.72;106141;1261;62091;-53
2023/08/13 08:58:44;;;;;;;5.90;1.50;;;;;;;23.48;63.43;101066.61;106377;1262;61171;-50
2023/08/13 09:01:10;;;;;;;5.20;1.30;;;;;;;23.44;63.97;101064.35;107533;1265;59767;-51
2023/08/13 09:03:37;;;;;;;4.60;1.10;;;;;;;23.47;64.52;101068.39;108298;1262;59040;-51
2023/08/13 09:06:03;;;;;;;4.20;1.30;;;;;;;23.50;62.99;101068.25;108548;1262;59860;-54
2023/08/13 09:08:47;;;;;;;3.60;1.20;;;;;;;23.60;63.49;101068.44;106779;1262;61947;-55
2023/08/13 09:11:14;;;;;;;4.10;1.40;;;;;;;23.70;63.03;101061.52;107494;1262;61325;-54
2023/08/13 09:13:50;;;;;;;4.20;1.20;;;;;;;23.74;61.88;101066.00;108515;1262;75126;-55
2023/08/13 09:16:17;;;;;;;3.80;1.10;;;;;;;23.77;61.71;101059.01;108263;1262;69419;-51
2023/08/13 09:18:43;;;;;;;3.60;1.10;;;;;;;23.77;62.14;101056.95;106531;1264;72787;-52
2023/08/13 09:21:10;;;;;;;4.50;1.10;;;;;;;23.78;61.91;101059.73;106401;1262;62681;-50
2023/08/13 09:23:39;;;;;;;4.70;1.20;;;;;;;23.80;61.48;101059.65;106509;1262;61145;-54
2023/08/13 09:26:05;;;;;;;4.30;1.30;;;;;;;23.86;61.73;101054.61;106253;1262;74490;-51
2023/08/13 09:28:32;;;;;;;5.40;1.10;;;;;;;23.90;60.93;101053.46;106097;1263;70001;-52
2023/08/13 09:30:59;;;;;;;3.50;1.00;;;;;;;23.89;60.60;101053.31;106236;1263;71474;-55
2023/08/13 09:33:26;;;;;;;3.80;1.20;;;;;;;23.96;61.34;101052.23;107057;1262;61341;-53
2023/08/13 09:35:53;;;;;;;5.00;1.20;;;;;;;23.98;60.10;101051.55;106022;1263;61173;-52
2023/08/13 09:38:20;;;;;;;4.30;1.00;;;;;;;24.02;60.52;101047.73;106648;1262;61289;-53
2023/08/13 09:40:48;;;;;;;3.80;1.20;;;;;;;24.11;60.84;101052.86;106272;1263;70518;-51
2023/08/13 09:43:17;;;;;;;4.00;0.90;;;;;;;24.13;59.26;101052.76;105756;1263;72094;-53
2023/08/13 09:45:46;;;;;;;4.70;1.50;;;;;;;24.15;58.53;101054.35;105715;1267;61496;-49
2023/08/13 09:48:16;;;;;;;3.60;1.10;;;;;;;24.15;58.40;101059.02;106530;1264;59403;-54
2023/08/13 09:50:48;;;;;;;3.10;1.00;;;;;;;24.09;58.16;101057.06;105441;1262;73876;-54
2023/08/13 09:53:20;;;;;;;3.20;0.90;;;;;;;24.07;58.97;101057.26;105687;1262;70216;-53
2023/08/13 09:55:52;;;;;;;4.10;1.20;;;;;;;24.13;59.46;101055.25;105736;1266;72041;-52
2023/08/13 09:58:19;;;;;;;3.00;1.00;;;;;;;24.12;59.20;101052.02;105436;1263;61352;-55
2023/08/13 10:00:47;;;;;;;4.90;1.10;;;;;;;24.21;59.46;101049.36;107844;1262;61218;-52
2023/08/13 10:03:16;;;;;;;4.20;1.20;;;;;;;24.30;57.59;101049.29;108559;1262;73335;-56
2023/08/13 10:05:44;;;;;;;3.30;1.10;;;;;;;24.37;58.28;101048.80;108593;1262;71212;-50
2023/08/13 10:08:12;;;;;;;5.50;1.20;;;;;;;24.44;57.86;101047.17;108455;1262;71570;-53
2023/08/13 10:10:40;;;;;;;2.80;1.00;;;;;;;24.57;57.73;101050.29;108440;1262;59266;-50
2023/08/13 10:13:07;;;;;;;3.30;1.20;;;;;;;24.77;57.76;101044.20;108253;1262;60058;-51
2023/08/13 10:15:35;;;;;;;3.20;1.10;;;;;;;24.97;57.68;101046.80;106294;1262;74657;-52
2023/08/13 10:18:02;;;;;;;5.20;1.00;;;;;;;25.11;56.94;101044.88;105830;1263;71181;-54
2023/08/13 10:20:29;;;;;;;2.70;0.80;;;;;;;25.19;55.92;101045.75;106002;1262;72429;-49
2023/08/13 10:22:55;;;;;;;4.70;1.10;;;;;;;25.25;55.89;101044.21;106002;1262;61252;-54
2023/08/13 10:25:27;;;;;;;5.50;1.10;;;;;;;25.30;55.49;101041.73;106552;1264;61102;-53
2023/08/13 10:27:55;;;;;;;4.70;1.50;;;;;;;25.37;55.65;101041.17;105697;1263;73605;-52
2023/08/13 10:30:22;;;;;;;3.50;1.00;;;;;;;25.54;56.19;101044.55;106898;1262;71193;-50
2023/08/13 10:32:59;;;;;;;3.10;1.10;;;;;;;25.65;54.07;101042.89;107648;1262;71964;-57
2023/08/13 10:35:32;;;;;;;2.80;1.20;;;;;;;25.75;54.07;101040.09;106266;1262;62757;-55
2023/08/13 10:38:01;;;;;;;5.80;1.20;;;;;;;25.85;53.68;101037.89;106684;1262;61169;-53
2023/08/13 10:40:28;;;;;;;4.00;0.90;;;;;;;25.90;54.38;101039.49;106444;1262;76020;-49
2023/08/13 10:42:55;;;;;;;4.90;1.30;;;;;;;25.93;53.37;101043.48;106230;1264;71331;-52
2023/08/13 10:45:28;;;;;;;3.90;1.30;;;;;;;25.99;53.22;101039.41;106916;1263;72428;-50
2023/08/13 10:48:25;;;;;;;3.50;1.50;;;;;;;26.05;53.06;101038.66;107061;1262;61296;-55
2023/08/13 10:50:54;;;;;;;4.60;1.40;;;;;;;26.08;52.66;101042.73;107589;1262;60076;-57
2023/08/13 10:53:33;;;;;;;4.60;1.40;;;;;;;26.03;52.51;101039.09;95485;1265;15002474;-58
2023/08/13 10:56:00;;;;;;;4.70;1.50;;;;;;;26.05;52.93;101034.69;107164;1263;59539;-57
2023/08/13 11:00:06;;;;;;;4.70;1.50;;;;;;;26.03;52.89;101039.27;86015;1267;20001661;-57
2023/08/13 11:02:57;;;;;;;3.50;1.30;;;;;;;26.09;52.54;101028.93;91911;1264;10001706;-57
2023/08/13 11:05:25;;;;;;;7.40;1.50;;;;;;;26.16;52.86;101028.55;107630;1263;70532;-57
2023/08/13 11:07:52;;;;;;;3.70;1.30;;;;;;;26.25;52.27;101022.68;107568;1262;74209;-57
2023/08/13 11:10:20;;;;;;;4.80;1.40;;;;;;;26.32;52.78;101021.27;107657;1265;59720;-54
2023/08/13 11:12:48;;;;;;;3.50;1.30;;;;;;;26.52;53.01;101018.80;107652;1265;60581;-55
2023/08/13 11:15:15;;;;;;;4.10;1.40;;;;;;;26.68;51.73;101021.20;107602;1267;74316;-54